Time;durP1;ratioP1;P1;durP2;ratioP2;P2;SDS_P1;SDS_P2;PMS_P1;PMS_P2;Temp;Humidity;BMP_temperature;BMP_pressure;BME280_temperature;BME280_humidity;BME280_pressure;Samples;Min_cycle;Max_cycle;Signal;HPM_P1;HPM_P2
2023/07/18 00:01:07;;;;;;;5.15;3.60;;;;;;;;;;4387303;32;66023;-58
2023/07/18 00:03:53;;;;;;;5.93;4.03;;;;;;;;;;4387012;32;67995;-58
2023/07/18 00:06:41;;;;;;;9.13;3.33;;;;;;;;;;4363002;32;60403;-58
2023/07/18 00:09:28;;;;;;;7.20;4.30;;;;;;;;;;4397558;32;70891;-59
2023/07/18 00:12:14;;;;;;;5.68;3.97;;;;;;;;;;4386791;32;68163;-58
2023/07/18 00:15:03;;;;;;;;;;;;;;;;;;4397880;32;68017;-59
2023/07/18 00:17:50;;;;;;;6.53;3.67;;;;;;;;;;4373920;32;60200;-59
2023/07/18 00:20:37;;;;;;;8.32;4.40;;;;;;;;;;4397618;32;69224;-58
2023/07/18 00:23:23;;;;;;;;;;;;;;;;;;4387030;32;69622;-58
2023/07/18 00:26:10;;;;;;;6.70;4.22;;;;;;;;;;4383915;32;67476;-58
2023/07/18 00:28:56;;;;;;;;;;;;;;;;;;4383999;32;71288;-58
2023/07/18 00:31:43;;;;;;;5.78;4.03;;;;;;;;;;4386969;32;66294;-59
2023/07/18 00:34:30;;;;;;;5.07;3.40;;;;;;;;;;4386630;32;66938;-57
2023/07/18 00:37:17;;;;;;;6.30;3.90;;;;;;;;;;4386901;32;60119;-58
2023/07/18 00:40:10;;;;;;;7.10;3.65;;;;;;;;;;4386414;32;69601;-57
2023/07/18 00:42:57;;;;;;;5.35;3.75;;;;;;;;;;4387413;32;66000;-58
2023/07/18 00:45:48;;;;;;;6.68;3.65;;;;;;;;;;4373135;32;67994;-57
2023/07/18 00:48:35;;;;;;;5.95;4.20;;;;;;;;;;4397339;32;59750;-60
2023/07/18 00:51:24;;;;;;;6.78;4.03;;;;;;;;;;4375300;32;70747;-57
2023/07/18 00:54:11;;;;;;;8.20;3.67;;;;;;;;;;4375873;32;68417;-58
2023/07/18 00:56:57;;;;;;;5.40;3.53;;;;;;;;;;4396988;32;67621;-59
2023/07/18 00:59:44;;;;;;;5.60;3.72;;;;;;;;;;4386344;32;70772;-59
2023/07/18 01:02:31;;;;;;;6.25;4.28;;;;;;;;;;4386650;32;65869;-58
2023/07/18 01:05:19;;;;;;;5.87;3.58;;;;;;;;;;4364995;32;68447;-58
2023/07/18 01:08:06;;;;;;;5.90;3.97;;;;;;;;;;4375484;32;67878;-58
2023/07/18 01:10:53;;;;;;;7.47;4.30;;;;;;;;;;4386281;32;71792;-59
2023/07/18 01:13:40;;;;;;;6.35;4.20;;;;;;;;;;4397112;32;64968;-58
2023/07/18 01:16:26;;;;;;;;;;;;;;;;;;4397322;32;67855;-57
2023/07/18 01:19:12;;;;;;;7.35;4.65;;;;;;;;;;4398559;32;59997;-58
2023/07/18 01:21:59;;;;;;;7.82;4.57;;;;;;;;;;4382993;32;71175;-58
2023/07/18 01:24:46;;;;;;;8.02;5.15;;;;;;;;;;4362243;32;69680;-58
2023/07/18 01:27:36;;;;;;;7.87;4.62;;;;;;;;;;4386330;32;66459;-58
2023/07/18 01:30:26;;;;;;;7.72;4.57;;;;;;;;;;4386457;32;60407;-58
2023/07/18 01:33:13;;;;;;;5.05;3.90;;;;;;;;;;4372730;32;70318;-59
2023/07/18 01:36:00;;;;;;;7.40;4.25;;;;;;;;;;4361556;32;70098;-57
2023/07/18 01:38:47;;;;;;;6.00;4.30;;;;;;;;;;4386189;32;67479;-58
2023/07/18 01:41:35;;;;;;;5.82;4.05;;;;;;;;;;4372197;32;72255;-58
2023/07/18 01:44:22;;;;;;;9.35;4.07;;;;;;;;;;4396591;32;64992;-58
2023/07/18 01:47:08;;;;;;;;;;;;;;;;;;4373003;32;68308;-58
2023/07/18 01:49:55;;;;;;;9.27;4.20;;;;;;;;;;4372530;32;58908;-58
2023/07/18 01:52:41;;;;;;;;;;;;;;;;;;4372348;32;70394;-58
2023/07/18 01:55:28;;;;;;;6.18;3.90;;;;;;;;;;4397882;32;65577;-58
2023/07/18 01:58:18;;;;;;;6.18;3.92;;;;;;;;;;4397716;32;67071;-58
2023/07/18 02:01:05;;;;;;;6.22;4.03;;;;;;;;;;4385979;32;60454;-58
2023/07/18 02:03:52;;;;;;;10.18;4.07;;;;;;;;;;4387559;32;70473;-59
2023/07/18 02:06:40;;;;;;;6.62;4.00;;;;;;;;;;4388344;32;69304;-58
2023/07/18 02:09:28;;;;;;;6.85;4.10;;;;;;;;;;4388463;32;66697;-58
2023/07/18 02:12:14;;;;;;;5.62;3.72;;;;;;;;;;4398955;32;70709;-57
2023/07/18 02:15:01;;;;;;;5.93;4.03;;;;;;;;;;4385426;32;66542;-58
2023/07/18 02:17:48;;;;;;;5.78;3.55;;;;;;;;;;4388667;32;67809;-58
2023/07/18 02:20:36;;;;;;;7.90;4.35;;;;;;;;;;4377777;32;67662;-58
2023/07/18 02:23:24;;;;;;;6.50;4.10;;;;;;;;;;4388108;32;70594;-59
2023/07/18 02:26:10;;;;;;;7.28;5.32;;;;;;;;;;4364252;32;66341;-58
2023/07/18 02:28:57;;;;;;;;;;;;;;;;;;4399246;32;67807;-58
2023/07/18 02:31:44;;;;;;;7.70;4.30;;;;;;;;;;4378217;32;59588;-58
2023/07/18 02:34:32;;;;;;;8.02;4.15;;;;;;;;;;4374530;32;68881;-58
2023/07/18 02:37:18;;;;;;;6.60;4.32;;;;;;;;;;4388238;32;69244;-58
2023/07/18 02:40:08;;;;;;;8.63;4.65;;;;;;;;;;4400214;32;67932;-58
2023/07/18 02:42:56;;;;;;;7.85;4.72;;;;;;;;;;4364438;32;68997;-58
2023/07/18 02:45:42;;;;;;;;;;;;;;;;;;4385776;32;70393;-58
2023/07/18 02:48:28;;;;;;;6.25;4.45;;;;;;;;;;4388040;32;69254;-58
2023/07/18 02:51:16;;;;;;;6.75;4.47;;;;;;;;;;4388018;32;66605;-57
2023/07/18 02:54:02;;;;;;;;;;;;;;;;;;4374836;32;71530;-58
2023/07/18 02:56:49;;;;;;;7.62;4.20;;;;;;;;;;4398651;32;67371;-58
2023/07/18 02:59:36;;;;;;;;;;;;;;;;;;4374509;32;68256;-59
2023/07/18 03:02:23;;;;;;;7.53;3.90;;;;;;;;;;4377768;32;59551;-58
2023/07/18 03:05:09;;;;;;;;;;;;;;;;;;4377383;32;70340;-58
2023/07/18 03:07:57;;;;;;;8.85;4.05;;;;;;;;;;4377299;32;69727;-58
2023/07/18 03:10:43;;;;;;;5.43;4.00;;;;;;;;;;4377366;32;66870;-58
2023/07/18 03:13:30;;;;;;;8.30;4.20;;;;;;;;;;4387462;32;60422;-59
2023/07/18 03:16:17;;;;;;;8.50;4.35;;;;;;;;;;4376722;32;70271;-59
2023/07/18 03:19:08;;;;;;;7.43;4.10;;;;;;;;;;4374188;32;68212;-58
2023/07/18 03:21:55;;;;;;;5.90;4.00;;;;;;;;;;4374042;32;67262;-58
2023/07/18 03:24:42;;;;;;;6.45;3.90;;;;;;;;;;4376578;32;71766;-59
2023/07/18 03:27:28;;;;;;;8.23;4.15;;;;;;;;;;4399714;32;66863;-59
2023/07/18 03:30:17;;;;;;;5.47;4.12;;;;;;;;;;4373893;32;67471;-59
2023/07/18 03:33:03;;;;;;;;;;;;;;;;;;4374585;32;68284;-58
2023/07/18 03:35:49;;;;;;;5.68;3.92;;;;;;;;;;4387321;32;70880;-58
2023/07/18 03:38:36;;;;;;;5.25;3.53;;;;;;;;;;4363471;32;66654;-58
2023/07/18 03:41:23;;;;;;;4.75;3.60;;;;;;;;;;4397614;32;68212;-57
2023/07/18 03:44:09;;;;;;;;;;;;;;;;;;4377215;32;60124;-57
2023/07/18 03:46:56;;;;;;;8.57;4.33;;;;;;;;;;4374024;32;67509;-59
2023/07/18 03:49:43;;;;;;;;;;;;;;;;;;4384447;32;70106;-58
2023/07/18 03:52:29;;;;;;;7.20;3.78;;;;;;;;;;4384860;32;66704;-57
2023/07/18 03:55:16;;;;;;;;;;;;;;;;;;4373945;32;72360;-57
2023/07/18 03:58:03;;;;;;;5.45;3.70;;;;;;;;;;4387067;32;68875;-59
2023/07/18 04:00:49;;;;;;;;;;;;;;;;;;4374306;32;69787;-57
2023/07/18 04:03:39;;;;;;;5.70;3.58;;;;;;;;;;4387492;32;66993;-58
2023/07/18 04:06:26;;;;;;;5.78;4.00;;;;;;;;;;4373231;32;72249;-58
2023/07/18 04:09:12;;;;;;;;;;;;;;;;;;4384399;32;66157;-57
2023/07/18 04:11:59;;;;;;;6.00;4.32;;;;;;;;;;4399170;32;68017;-58
2023/07/18 04:14:45;;;;;;;4.65;3.45;;;;;;;;;;4373721;32;60746;-58
2023/07/18 04:17:32;;;;;;;4.50;3.20;;;;;;;;;;4386911;32;70762;-57
2023/07/18 04:20:19;;;;;;;5.12;3.60;;;;;;;;;;4373358;32;68000;-57
2023/07/18 04:23:06;;;;;;;5.20;3.55;;;;;;;;;;4383653;32;67646;-57
2023/07/18 04:26:01;;;;;;;5.85;3.35;;;;;;;;;;4383287;32;60868;-58
2023/07/18 04:28:48;;;;;;;6.05;3.60;;;;;;;;;;4373094;32;69160;-58
2023/07/18 04:31:34;;;;;;;5.60;3.62;;;;;;;;;;4383855;32;69409;-58
2023/07/18 04:34:21;;;;;;;7.22;3.60;;;;;;;;;;4383710;32;68209;-58
2023/07/18 04:37:08;;;;;;;5.05;3.03;;;;;;;;;;4372934;32;72410;-57
2023/07/18 04:39:54;;;;;;;6.15;3.30;;;;;;;;;;4386815;32;65963;-61
2023/07/18 04:42:42;;;;;;;5.30;3.42;;;;;;;;;;4386463;32;68104;-59
2023/07/18 04:45:31;;;;;;;6.90;3.65;;;;;;;;;;4398670;32;60220;-58
2023/07/18 04:48:18;;;;;;;4.35;3.15;;;;;;;;;;4386651;32;70515;-58
2023/07/18 04:51:05;;;;;;;5.90;3.40;;;;;;;;;;4362504;32;67125;-58
2023/07/18 04:53:51;;;;;;;5.68;3.30;;;;;;;;;;4375960;32;68166;-58
2023/07/18 04:56:38;;;;;;;;;;;;;;;;;;4373612;32;59867;-58
2023/07/18 04:59:25;;;;;;;6.22;3.65;;;;;;;;;;4386594;32;70139;-58
2023/07/18 05:02:12;;;;;;;4.80;3.40;;;;;;;;;;4362727;32;70482;-58
2023/07/18 05:04:58;;;;;;;;;;;;;;;;;;4386896;32;67741;-58
2023/07/18 05:07:46;;;;;;;5.97;3.78;;;;;;;;;;4375770;32;71810;-58
2023/07/18 05:10:33;;;;;;;6.28;3.70;;;;;;;;;;4397424;32;64783;-58
2023/07/18 05:13:20;;;;;;;5.25;3.10;;;;;;;;;;4375558;32;68922;-59
2023/07/18 05:16:06;;;;;;;6.00;3.95;;;;;;;;;;4386222;32;67807;-58
2023/07/18 05:18:53;;;;;;;4.80;3.70;;;;;;;;;;4386005;32;71963;-58
2023/07/18 05:21:39;;;;;;;;;;;;;;;;;;4386558;32;65035;-59
2023/07/18 05:24:26;;;;;;;5.75;4.30;;;;;;;;;;4397013;32;67398;-58
2023/07/18 05:27:13;;;;;;;5.72;3.87;;;;;;;;;;4383711;32;59321;-58
2023/07/18 05:30:00;;;;;;;7.43;3.62;;;;;;;;;;4386239;32;69658;-58
2023/07/18 05:32:48;;;;;;;5.93;3.47;;;;;;;;;;4364956;32;69571;-58
2023/07/18 05:35:34;;;;;;;5.62;3.50;;;;;;;;;;4372537;32;67141;-59
2023/07/18 05:38:21;;;;;;;6.00;3.58;;;;;;;;;;4386219;32;60071;-59
2023/07/18 05:41:07;;;;;;;;;;;;;;;;;;4397863;32;70755;-58
2023/07/18 05:43:54;;;;;;;4.93;3.00;;;;;;;;;;4375213;32;69070;-57
2023/07/18 05:46:41;;;;;;;5.60;4.40;;;;;;;;;;4386277;32;67362;-58
2023/07/18 05:49:27;;;;;;;;;;;;;;;;;;4385969;32;71948;-57
2023/07/18 05:52:14;;;;;;;4.97;4.37;;;;;;;;;;4398083;32;66247;-57
2023/07/18 05:55:00;;;;;;;5.18;4.10;;;;;;;;;;4385931;32;67071;-58
2023/07/18 05:57:48;;;;;;;7.72;4.87;;;;;;;;;;4372399;32;61463;-58
2023/07/18 06:00:34;;;;;;;6.82;4.20;;;;;;;;;;4374993;32;71713;-58
2023/07/18 06:03:22;;;;;;;7.00;4.35;;;;;;;;;;4385794;32;65687;-58
2023/07/18 06:06:09;;;;;;;7.12;4.12;;;;;;;;;;4382847;32;68291;-58
2023/07/18 06:08:56;;;;;;;7.93;4.78;;;;;;;;;;4386061;32;59114;-57
2023/07/18 06:11:54;;;;;;;7.20;4.50;;;;;;;;;;3868722;36;43719;-58
2023/07/18 06:14:41;;;;;;;8.55;3.92;;;;;;;;;;4393052;32;60206;-58
2023/07/18 06:17:27;;;;;;;6.78;4.87;;;;;;;;;;4389635;32;71363;-57
2023/07/18 06:20:14;;;;;;;5.90;3.95;;;;;;;;;;4414541;32;69412;-59
2023/07/18 06:23:00;;;;;;;;;;;;;;;;;;4414430;32;67871;-57
2023/07/18 06:25:47;;;;;;;6.30;4.60;;;;;;;;;;4414221;32;71043;-57
2023/07/18 06:28:33;;;;;;;7.30;4.10;;;;;;;;;;4403268;32;65353;-57
2023/07/18 06:31:21;;;;;;;8.40;4.20;;;;;;;;;;4389945;32;67033;-58
2023/07/18 06:34:07;;;;;;;7.80;5.55;;;;;;;;;;4389809;32;59871;-58
2023/07/18 06:36:54;;;;;;;9.07;5.05;;;;;;;;;;4379038;32;72695;-58
2023/07/18 06:39:40;;;;;;;;;;;;;;;;;;4414311;32;65116;-58
2023/07/18 06:42:28;;;;;;;7.67;5.00;;;;;;;;;;4413897;32;67668;-58
2023/07/18 06:45:14;;;;;;;7.78;4.55;;;;;;;;;;4392760;32;59047;-58
2023/07/18 06:48:02;;;;;;;5.70;4.40;;;;;;;;;;4413651;32;70464;-57
2023/07/18 06:50:51;;;;;;;7.95;4.45;;;;;;;;;;4402790;32;69404;-58
2023/07/18 06:53:38;;;;;;;7.47;4.40;;;;;;;;;;4403090;32;67837;-57
2023/07/18 06:56:24;;;;;;;;;;;;;;;;;;4387817;32;70661;-57
2023/07/18 06:59:13;;;;;;;7.60;4.62;;;;;;;;;;4388168;32;65317;-59
2023/07/18 07:02:00;;;;;;;7.28;4.78;;;;;;;;;;4385115;32;68360;-59
2023/07/18 07:04:47;;;;;;;6.22;4.03;;;;;;;;;;4384922;32;68315;-58
2023/07/18 07:07:33;;;;;;;6.50;4.43;;;;;;;;;;4387729;32;71654;-59
2023/07/18 07:10:20;;;;;;;;;;;;;;;;;;4398975;32;65781;-57
2023/07/18 07:13:10;;;;;;;7.45;4.50;;;;;;;;;;4378166;32;67706;-58
2023/07/18 07:15:57;;;;;;;6.93;4.12;;;;;;;;;;4387833;32;60117;-57
2023/07/18 07:18:44;;;;;;;6.18;3.78;;;;;;;;;;4384978;32;69411;-58
2023/07/18 07:21:31;;;;;;;6.75;5.32;;;;;;;;;;4360708;32;70196;-58
2023/07/18 07:24:17;;;;;;;6.28;4.65;;;;;;;;;;4366499;32;67858;-58
2023/07/18 07:27:05;;;;;;;;;;;;;;;;;;4364700;32;58743;-57
2023/07/18 07:29:52;;;;;;;6.60;4.47;;;;;;;;;;4377371;32;70432;-58
2023/07/18 07:32:39;;;;;;;5.82;4.47;;;;;;;;;;4363798;32;70034;-57
2023/07/18 07:35:26;;;;;;;5.85;4.25;;;;;;;;;;4363821;32;67622;-57
2023/07/18 07:38:12;;;;;;;;;;;;;;;;;;4400270;32;70661;-56
2023/07/18 07:40:58;;;;;;;6.60;3.85;;;;;;;;;;4388166;32;65085;-58
2023/07/18 07:43:46;;;;;;;5.12;3.78;;;;;;;;;;4366773;32;66784;-58
2023/07/18 07:46:32;;;;;;;4.85;3.70;;;;;;;;;;4377581;32;59985;-57
2023/07/18 07:49:20;;;;;;;5.55;3.97;;;;;;;;;;4389355;32;70483;-56
2023/07/18 07:52:07;;;;;;;6.82;4.78;;;;;;;;;;4390605;32;65166;-57
2023/07/18 07:54:54;;;;;;;9.18;4.97;;;;;;;;;;4367596;32;67950;-58
2023/07/18 07:57:41;;;;;;;7.90;4.60;;;;;;;;;;4377207;32;60092;-57
2023/07/18 08:00:28;;;;;;;7.28;4.35;;;;;;;;;;4365125;32;71085;-58
2023/07/18 08:03:16;;;;;;;8.07;4.97;;;;;;;;;;4379110;32;69283;-58
2023/07/18 08:06:02;;;;;;;5.53;4.45;;;;;;;;;;4380653;32;68324;-57
2023/07/18 08:08:49;;;;;;;5.60;4.32;;;;;;;;;;4385833;32;70791;-58
2023/07/18 08:11:36;;;;;;;5.72;5.03;;;;;;;;;;4393496;32;65916;-58
2023/07/18 08:14:23;;;;;;;6.55;5.50;;;;;;;;;;4368899;32;67250;-57
2023/07/18 08:17:10;;;;;;;7.60;4.65;;;;;;;;;;4368857;32;67243;-58
2023/07/18 08:19:56;;;;;;;5.65;4.30;;;;;;;;;;4381116;32;70933;-58
2023/07/18 08:22:43;;;;;;;6.78;4.57;;;;;;;;;;4371047;32;65903;-57
2023/07/18 08:25:30;;;;;;;6.07;4.80;;;;;;;;;;4381555;32;66646;-58
2023/07/18 08:28:16;;;;;;;6.12;4.68;;;;;;;;;;4365733;32;60123;-58
2023/07/18 08:31:04;;;;;;;6.25;4.53;;;;;;;;;;4400106;32;70676;-60
2023/07/18 08:33:51;;;;;;;7.05;4.80;;;;;;;;;;4373370;32;70477;-57
2023/07/18 08:36:39;;;;;;;7.37;4.20;;;;;;;;;;4374622;32;68493;-58
2023/07/18 08:39:25;;;;;;;6.65;4.82;;;;;;;;;;4374453;32;60203;-58
2023/07/18 08:42:13;;;;;;;;;;;;;;;;;;4387393;32;69690;-57
2023/07/18 08:45:00;;;;;;;7.50;4.53;;;;;;;;;;4352592;32;70821;-58
2023/07/18 08:47:56;;;;;;;9.00;5.85;;;;;;;;;;4377423;32;66655;-58
2023/07/18 08:50:42;;;;;;;6.47;5.70;;;;;;;;;;4363301;32;70460;-58
2023/07/18 08:53:30;;;;;;;7.75;6.95;;;;;;;;;;4374708;32;64809;-58
2023/07/18 08:56:16;;;;;;;7.30;5.75;;;;;;;;;;4377312;32;66605;-58
2023/07/18 08:59:04;;;;;;;8.27;5.07;;;;;;;;;;4373771;32;61286;-58
2023/07/18 09:01:52;;;;;;;7.00;5.15;;;;;;;;;;4373124;32;70875;-58
2023/07/18 09:04:39;;;;;;;5.68;4.43;;;;;;;;;;4365634;32;66023;-58
2023/07/18 09:07:27;;;;;;;5.75;4.43;;;;;;;;;;4373386;32;67096;-58
2023/07/18 09:10:21;;;;;;;7.20;6.03;;;;;;;;;;4365385;32;60203;-58
2023/07/18 09:13:09;;;;;;;9.52;5.62;;;;;;;;;;4365007;32;69473;-58
2023/07/18 09:15:56;;;;;;;7.80;4.43;;;;;;;;;;4376006;32;69575;-58
2023/07/18 09:18:49;;;;;;;7.93;5.95;;;;;;;;;;4373042;32;68539;-59
2023/07/18 09:21:36;;;;;;;4.93;3.95;;;;;;;;;;4375623;32;71695;-58
2023/07/18 09:24:31;;;;;;;8.93;6.85;;;;;;;;;;4375855;32;64955;-58
2023/07/18 09:27:19;;;;;;;6.97;5.22;;;;;;;;;;4375848;32;68056;-57
2023/07/18 09:30:07;;;;;;;5.87;3.78;;;;;;;;;;4365284;32;66847;-58
2023/07/18 09:32:54;;;;;;;9.63;6.00;;;;;;;;;;4375659;32;71697;-58
2023/07/18 09:35:42;;;;;;;8.68;5.97;;;;;;;;;;4375583;32;66031;-58
2023/07/18 09:38:32;;;;;;;6.62;5.60;;;;;;;;;;4373423;32;67239;-58
2023/07/18 09:41:20;;;;;;;8.02;5.57;;;;;;;;;;4362655;32;60172;-57
2023/07/18 09:44:08;;;;;;;6.47;5.07;;;;;;;;;;4362272;32;70005;-59
2023/07/18 09:46:55;;;;;;;7.25;6.15;;;;;;;;;;4375512;32;68400;-58
2023/07/18 09:49:44;;;;;;;8.25;5.53;;;;;;;;;;4362124;32;66965;-59
2023/07/18 09:52:34;;;;;;;6.97;4.55;;;;;;;;;;4375551;32;71772;-58
2023/07/18 09:55:26;;;;;;;5.90;5.10;;;;;;;;;;4375330;32;70644;-59
2023/07/18 09:58:13;;;;;;;9.07;5.28;;;;;;;;;;4365108;32;68349;-58
2023/07/18 10:01:01;;;;;;;7.93;6.20;;;;;;;;;;4375719;32;66622;-58
2023/07/18 10:03:49;;;;;;;7.55;6.10;;;;;;;;;;4372667;32;70855;-58
2023/07/18 10:06:39;;;;;;;7.97;6.85;;;;;;;;;;4361913;32;65875;-57
2023/07/18 10:09:27;;;;;;;8.18;6.10;;;;;;;;;;4375656;32;66746;-58
2023/07/18 10:12:14;;;;;;;10.02;6.22;;;;;;;;;;4362659;32;60955;-58
2023/07/18 10:15:03;;;;;;;7.37;5.97;;;;;;;;;;4385938;32;70883;-59
2023/07/18 10:17:50;;;;;;;7.53;6.20;;;;;;;;;;4375913;32;69621;-58
2023/07/18 10:20:36;;;;;;;7.43;6.35;;;;;;;;;;4397878;32;67578;-59
2023/07/18 10:23:42;;;;;;;7.43;5.82;;;;;;;;;;4372346;32;60064;-58
2023/07/18 10:26:30;;;;;;;9.00;6.60;;;;;;;;;;4375189;32;69919;-58
2023/07/18 10:29:17;;;;;;;6.97;5.28;;;;;;;;;;4372491;32;68809;-58
2023/07/18 10:32:06;;;;;;;9.57;6.03;;;;;;;;;;4364610;32;67828;-59
2023/07/18 10:34:53;;;;;;;9.80;5.35;;;;;;;;;;4361712;32;72338;-59
2023/07/18 10:37:45;;;;;;;5.35;4.25;;;;;;;;;;4385990;32;65060;-59
2023/07/18 10:40:43;;;;;;;9.13;6.12;;;;;;;;;;4372436;32;66953;-59
2023/07/18 10:43:33;;;;;;;7.18;5.05;;;;;;;;;;4374427;32;58492;-59
2023/07/18 10:46:19;;;;;;;7.40;5.25;;;;;;;;;;4364455;32;71878;-59
2023/07/18 10:49:07;;;;;;;8.10;5.95;;;;;;;;;;4386010;32;66224;-58
2023/07/18 10:51:55;;;;;;;7.95;5.28;;;;;;;;;;4372413;32;66954;-59
2023/07/18 10:54:55;;;;;;;3.72;3.03;;;;;;;;;;4374786;32;61040;-58
2023/07/18 10:57:42;;;;;;;6.70;6.00;;;;;;;;;;4373492;32;69734;-59
2023/07/18 11:00:30;;;;;;;8.68;5.72;;;;;;;;;;4364581;32;67127;-59
2023/07/18 11:03:28;;;;;;;8.80;6.35;;;;;;;;;;4388200;32;66978;-60
2023/07/18 11:06:16;;;;;;;5.87;5.05;;;;;;;;;;4378321;32;71704;-57
2023/07/18 11:09:04;;;;;;;8.10;4.62;;;;;;;;;;4377894;32;69654;-58
2023/07/18 11:11:51;;;;;;;7.00;5.20;;;;;;;;;;4374706;32;68556;-59
2023/07/18 11:14:39;;;;;;;3.90;2.90;;;;;;;;;;4367123;32;67738;-59
2023/07/18 11:17:27;;;;;;;6.30;4.65;;;;;;;;;;4364276;32;69785;-59
2023/07/18 11:20:13;;;;;;;7.72;4.90;;;;;;;;;;4364682;32;66828;-58
2023/07/18 11:23:01;;;;;;;7.28;4.90;;;;;;;;;;4400020;32;67004;-58
2023/07/18 11:25:48;;;;;;;6.43;4.10;;;;;;;;;;4388306;32;60391;-59
2023/07/18 11:28:35;;;;;;;8.07;4.65;;;;;;;;;;4377727;32;70550;-59
2023/07/18 11:31:25;;;;;;;6.20;4.65;;;;;;;;;;4367178;32;68493;-58
2023/07/18 11:34:22;;;;;;;5.93;3.70;;;;;;;;;;4388280;32;67087;-59
2023/07/18 11:37:09;;;;;;;6.80;4.40;;;;;;;;;;4353842;32;58986;-59
2023/07/18 11:39:59;;;;;;;7.90;5.47;;;;;;;;;;4377209;32;69481;-58
2023/07/18 11:42:46;;;;;;;5.97;4.35;;;;;;;;;;4399804;32;69543;-58
2023/07/18 11:45:34;;;;;;;5.75;4.50;;;;;;;;;;4377295;32;67562;-59
2023/07/18 11:48:22;;;;;;;5.05;3.33;;;;;;;;;;4376941;32;71517;-58
2023/07/18 11:51:11;;;;;;;5.32;4.57;;;;;;;;;;4362356;32;67114;-58
2023/07/18 11:53:59;;;;;;;7.62;4.90;;;;;;;;;;4377263;32;68296;-58
2023/07/18 11:56:46;;;;;;;9.52;4.68;;;;;;;;;;4363923;32;59989;-59
2023/07/18 11:59:33;;;;;;;6.18;4.80;;;;;;;;;;4373718;32;70676;-59
2023/07/18 12:02:20;;;;;;;7.35;5.28;;;;;;;;;;4363788;32;65700;-59
2023/07/18 12:05:08;;;;;;;6.72;5.10;;;;;;;;;;4366413;32;67987;-58
2023/07/18 12:07:55;;;;;;;13.00;5.10;;;;;;;;;;4363717;32;58906;-59
2023/07/18 12:10:41;;;;;;;6.78;4.60;;;;;;;;;;4387247;32;70828;-59
2023/07/18 12:13:28;;;;;;;7.45;4.65;;;;;;;;;;4376701;32;69465;-58
2023/07/18 12:16:16;;;;;;;6.65;5.05;;;;;;;;;;4374157;32;68385;-59
2023/07/18 12:19:02;;;;;;;9.63;5.60;;;;;;;;;;4376650;32;71776;-59
2023/07/18 12:21:49;;;;;;;7.43;5.45;;;;;;;;;;4374180;32;65467;-59
2023/07/18 12:24:36;;;;;;;9.88;6.30;;;;;;;;;;4375984;32;67320;-60
2023/07/18 12:27:23;;;;;;;7.68;6.05;;;;;;;;;;4366159;32;66472;-59
2023/07/18 12:30:12;;;;;;;8.57;6.40;;;;;;;;;;4373691;32;70680;-59
2023/07/18 12:32:59;;;;;;;8.82;6.20;;;;;;;;;;4353098;32;65222;-59
2023/07/18 12:35:46;;;;;;;7.97;5.53;;;;;;;;;;4399264;32;66809;-59
2023/07/18 12:38:34;;;;;;;7.72;6.53;;;;;;;;;;4351915;32;58890;-59
2023/07/18 12:41:20;;;;;;;8.43;5.87;;;;;;;;;;4352592;32;68430;-58
2023/07/18 12:44:19;;;;;;;8.05;5.00;;;;;;;;;;4385118;32;66947;-59
2023/07/18 12:47:08;;;;;;;6.80;5.80;;;;;;;;;;4366372;32;66843;-59
2023/07/18 12:49:55;;;;;;;7.97;5.55;;;;;;;;;;4363353;32;59007;-59
2023/07/18 12:52:42;;;;;;;8.02;5.95;;;;;;;;;;4363292;32;70654;-59
2023/07/18 12:55:29;;;;;;;6.90;6.00;;;;;;;;;;4386754;32;69570;-59
2023/07/18 12:58:15;;;;;;;6.07;5.45;;;;;;;;;;4386999;32;68059;-59
2023/07/18 13:01:02;;;;;;;8.35;5.68;;;;;;;;;;4386839;32;71633;-58
2023/07/18 13:03:48;;;;;;;7.68;5.45;;;;;;;;;;4376189;32;65005;-58
2023/07/18 13:06:35;;;;;;;6.45;5.07;;;;;;;;;;4362988;32;68882;-59
2023/07/18 13:09:22;;;;;;;5.93;5.25;;;;;;;;;;4362729;32;60843;-60
2023/07/18 13:12:09;;;;;;;8.27;5.62;;;;;;;;;;4365326;32;70466;-60
2023/07/18 13:14:57;;;;;;;10.85;6.45;;;;;;;;;;4376611;32;64936;-57
2023/07/18 13:17:44;;;;;;;7.22;4.60;;;;;;;;;;4373447;32;66871;-60
2023/07/18 13:20:31;;;;;;;5.87;3.72;;;;;;;;;;4362477;32;60806;-58
2023/07/18 13:23:18;;;;;;;5.43;3.80;;;;;;;;;;4352024;32;71338;-59
2023/07/18 13:26:06;;;;;;;6.55;4.53;;;;;;;;;;4365714;32;69345;-59
2023/07/18 13:28:53;;;;;;;7.93;4.43;;;;;;;;;;4365476;32;66630;-58
2023/07/18 13:31:40;;;;;;;6.80;4.70;;;;;;;;;;4365660;32;71707;-58
2023/07/18 13:34:27;;;;;;;6.68;3.80;;;;;;;;;;4376403;32;66227;-58
2023/07/18 13:39:52;;;;;;;7.12;4.30;;;;;;;;;;3847071;37;43512;-59
2023/07/18 13:42:39;;;;;;;8.25;4.65;;;;;;;;;;4399634;32;59692;-59
2023/07/18 13:45:25;;;;;;;;;;;;;;;;;;4399404;32;70739;-58
2023/07/18 13:48:13;;;;;;;6.13;4.27;;;;;;;;;;4399410;32;69369;-58
2023/07/18 13:51:01;;;;;;;7.50;4.78;;;;;;;;;;4389475;32;67433;-58
2023/07/18 13:53:49;;;;;;;8.13;4.85;;;;;;;;;;4399142;32;69781;-59
2023/07/18 13:56:35;;;;;;;7.40;4.30;;;;;;;;;;4394652;32;64775;-57
2023/07/18 13:59:24;;;;;;;7.18;5.20;;;;;;;;;;4383963;32;67321;-59
2023/07/18 14:02:11;;;;;;;9.13;5.37;;;;;;;;;;4384633;32;60210;-58
2023/07/18 14:04:58;;;;;;;7.82;4.93;;;;;;;;;;4384752;32;70785;-57
2023/07/18 14:07:45;;;;;;;6.72;4.35;;;;;;;;;;4394653;32;65904;-58
2023/07/18 14:10:33;;;;;;;7.35;4.75;;;;;;;;;;4383352;32;67010;-57
2023/07/18 14:13:20;;;;;;;6.43;4.72;;;;;;;;;;4362127;32;60805;-59
2023/07/18 14:16:08;;;;;;;7.47;4.10;;;;;;;;;;4373199;32;70980;-58
2023/07/18 14:18:57;;;;;;;7.00;4.05;;;;;;;;;;4394006;32;68364;-59
2023/07/18 14:21:44;;;;;;;5.60;4.28;;;;;;;;;;4383671;32;67963;-58
2023/07/18 14:24:31;;;;;;;6.68;4.10;;;;;;;;;;4373075;32;70863;-58
2023/07/18 14:27:18;;;;;;;6.93;3.92;;;;;;;;;;4372618;32;65412;-59
2023/07/18 14:30:06;;;;;;;6.15;4.03;;;;;;;;;;4373424;32;68502;-59
2023/07/18 14:32:53;;;;;;;7.10;4.30;;;;;;;;;;4394217;32;68310;-57
2023/07/18 14:35:41;;;;;;;5.57;3.85;;;;;;;;;;4383296;32;72366;-58
2023/07/18 14:38:28;;;;;;;5.62;3.67;;;;;;;;;;4383102;32;67165;-59
2023/07/18 14:41:14;;;;;;;;;;;;;;;;;;4384107;32;67847;-58
2023/07/18 14:44:01;;;;;;;5.13;4.03;;;;;;;;;;4394902;32;58830;-58
2023/07/18 14:46:48;;;;;;;5.03;3.90;;;;;;;;;;4371905;32;71704;-58
2023/07/18 14:49:35;;;;;;;5.28;3.62;;;;;;;;;;4379896;32;69544;-59
2023/07/18 14:52:22;;;;;;;6.10;4.00;;;;;;;;;;4383653;32;67857;-58
2023/07/18 14:55:09;;;;;;;4.97;3.30;;;;;;;;;;4373073;32;60507;-58
2023/07/18 14:57:57;;;;;;;4.25;3.10;;;;;;;;;;4361743;32;70417;-60
2023/07/18 15:00:44;;;;;;;4.65;3.15;;;;;;;;;;4362420;32;68161;-59
2023/07/18 15:03:30;;;;;;;4.87;3.00;;;;;;;;;;4362494;32;66863;-58
2023/07/18 15:06:17;;;;;;;4.53;3.60;;;;;;;;;;4372928;32;70777;-59
2023/07/18 15:09:04;;;;;;;;;;;;;;;;;;4372862;32;67118;-58
2023/07/18 15:11:52;;;;;;;5.55;3.70;;;;;;;;;;4394366;32;68037;-57
2023/07/18 15:14:42;;;;;;;5.93;3.60;;;;;;;;;;4383998;32;60451;-57
2023/07/18 15:17:36;;;;;;;4.43;3.60;;;;;;;;;;4361234;32;68435;-57
2023/07/18 15:20:23;;;;;;;6.60;3.80;;;;;;;;;;4372751;32;65790;-57
2023/07/18 15:23:13;;;;;;;5.18;4.07;;;;;;;;;;4383190;32;67827;-58
2023/07/18 15:25:59;;;;;;;6.30;4.30;;;;;;;;;;4373302;32;59172;-57
2023/07/18 15:28:47;;;;;;;5.35;4.22;;;;;;;;;;4372714;32;69624;-59
2023/07/18 15:31:34;;;;;;;6.85;4.45;;;;;;;;;;4372226;32;68674;-58
2023/07/18 15:34:21;;;;;;;4.85;3.90;;;;;;;;;;4383109;32;67540;-58
2023/07/18 15:37:07;;;;;;;;;;;;;;;;;;4372523;32;71537;-58
2023/07/18 15:39:54;;;;;;;5.65;3.53;;;;;;;;;;4371388;32;66461;-58
2023/07/18 15:42:42;;;;;;;4.22;2.90;;;;;;;;;;4372336;32;66814;-57
2023/07/18 15:45:30;;;;;;;9.05;4.00;;;;;;;;;;4372690;32;66519;-58
2023/07/18 15:48:17;;;;;;;3.25;2.37;;;;;;;;;;4360697;32;70727;-59
2023/07/18 15:51:03;;;;;;;4.35;3.30;;;;;;;;;;4372725;32;65224;-58
2023/07/18 15:53:50;;;;;;;4.70;3.60;;;;;;;;;;4360903;32;65647;-59
2023/07/18 15:56:40;;;;;;;9.25;5.10;;;;;;;;;;4372479;32;60085;-58
2023/07/18 15:59:27;;;;;;;7.55;4.20;;;;;;;;;;4382699;32;70878;-58
2023/07/18 16:02:14;;;;;;;6.12;4.03;;;;;;;;;;4361081;32;69208;-58
2023/07/18 16:05:02;;;;;;;;;;;;;;;;;;4373505;32;67493;-58
2023/07/18 16:07:51;;;;;;;4.87;3.78;;;;;;;;;;4373406;32;59679;-58
2023/07/18 16:10:39;;;;;;;8.25;3.80;;;;;;;;;;4361518;32;71324;-58
2023/07/18 16:13:26;;;;;;;6.03;4.18;;;;;;;;;;4350398;32;69955;-58
2023/07/18 16:16:14;;;;;;;4.53;3.58;;;;;;;;;;4372454;32;66833;-59
2023/07/18 16:19:03;;;;;;;4.85;3.60;;;;;;;;;;4372140;32;71556;-59
2023/07/18 16:21:50;;;;;;;6.35;3.70;;;;;;;;;;4361141;32;66082;-57
2023/07/18 16:24:36;;;;;;;5.35;3.70;;;;;;;;;;4350272;32;67135;-57
2023/07/18 16:27:23;;;;;;;;;;;;;;;;;;4383462;32;59334;-57
2023/07/18 16:30:09;;;;;;;6.32;4.28;;;;;;;;;;4370848;32;69690;-59
2023/07/18 16:32:56;;;;;;;7.50;4.70;;;;;;;;;;4371718;32;65997;-59
2023/07/18 16:35:44;;;;;;;7.18;4.68;;;;;;;;;;4382528;32;67733;-58
2023/07/18 16:38:34;;;;;;;6.82;4.70;;;;;;;;;;4361300;32;59456;-58
2023/07/18 16:41:21;;;;;;;9.88;4.85;;;;;;;;;;4360361;32;70018;-59
2023/07/18 16:44:09;;;;;;;8.57;4.72;;;;;;;;;;4372115;32;67989;-58
2023/07/18 16:46:56;;;;;;;6.70;4.70;;;;;;;;;;4372207;32;67776;-57
2023/07/18 16:49:43;;;;;;;9.40;5.00;;;;;;;;;;4361564;32;71852;-57
2023/07/18 16:52:30;;;;;;;6.78;4.60;;;;;;;;;;4360446;32;65807;-58
2023/07/18 16:55:17;;;;;;;10.95;5.00;;;;;;;;;;4371715;32;67463;-58
2023/07/18 16:58:04;;;;;;;10.43;5.05;;;;;;;;;;4370922;32;68562;-58